Terminal Aerodrome Forecast
Issued by NWS Chicago, IL

Home | Current Version | Previous Version | Text Only | Print | Product List | Glossary On
Versions: 1 2 3 4 5 6 7 8 9 10 11 12 13 14 15 16 17 18 19 20 21 22 23 24 25 26 27 28 29
237
FTUS43 KLOT 172057 AAB
TAFRFD
TAF AMD
KRFD 172057Z 1721/1818 28008KT 2SM BR OVC005
      TEMPO 1721/1801 1SM -SHRA BR
     FM180600 27007KT 3SM BR SCT004 OVC006
     FM181600 23010KT P6SM SCT025=

USA.gov is the U.S. government's official web portal to all federal, state and local government web resources and services.